createdAt,value
2019-03-06T00:00:36.607Z,62.32
2019-03-06T00:03:14.051Z,61.46
2019-03-06T00:05:42.711Z,60.66
2019-03-06T00:08:11.335Z,62.28
2019-03-06T00:10:39.958Z,62.23
2019-03-06T00:13:08.704Z,63.74
2019-03-06T00:15:37.319Z,63.27
2019-03-06T00:18:06.217Z,63.84
2019-03-06T00:20:34.872Z,61.61
2019-03-06T00:23:03.490Z,60.14
2019-03-06T00:25:32.095Z,61.24
2019-03-06T00:28:00.745Z,61.24
2019-03-06T00:30:29.621Z,59.15
2019-03-06T00:32:58.302Z,59.19
2019-03-06T00:35:28.586Z,59.79
2019-03-06T00:37:57.216Z,59.79
2019-03-06T00:40:42.594Z,59.04
2019-03-06T00:43:11.202Z,61.36
2019-03-06T00:45:39.880Z,61.56
2019-03-06T00:48:08.529Z,61.64
2019-03-06T00:50:37.150Z,60.89
2019-03-06T00:53:06.608Z,60.03
2019-03-06T00:55:35.257Z,59.54
2019-03-06T00:58:03.876Z,58.79
2019-03-06T01:00:32.571Z,59.01
2019-03-06T01:17:23.808Z,57.67
2019-03-06T01:19:52.353Z,59.90
2019-03-06T01:22:21.052Z,59.46
2019-03-06T01:24:49.708Z,60.44
2019-03-06T01:27:18.325Z,59.55
2019-03-06T01:29:46.950Z,59.28
2019-03-06T01:32:15.680Z,64.19
2019-03-06T01:34:49.039Z,65.47
2019-03-06T01:37:25.183Z,65.71
2019-03-06T01:39:55.430Z,64.44
2019-03-06T01:42:25.685Z,61.90
2019-03-06T01:44:54.583Z,60.66
2019-03-06T01:47:23.281Z,61.62
2019-03-06T01:49:51.887Z,60.94
2019-03-06T01:52:20.543Z,61.33
2019-03-06T01:54:49.978Z,61.33
2019-03-06T01:57:18.770Z,61.31
2019-03-06T01:59:47.429Z,62.84
2019-03-06T02:02:16.139Z,60.78
2019-03-06T02:04:44.763Z,61.51
2019-03-06T02:07:13.595Z,61.96
2019-03-06T02:09:42.378Z,60.97
2019-03-06T02:12:10.992Z,62.11
2019-03-06T02:14:39.668Z,60.39
2019-03-06T02:17:08.287Z,60.46
2019-03-06T02:19:36.983Z,59.86
2019-03-06T02:22:05.813Z,59.39
2019-03-06T02:24:34.435Z,58.39
2019-03-06T02:27:03.053Z,58.15
2019-03-06T02:29:31.695Z,58.37
2019-03-06T02:32:00.381Z,57.74
2019-03-06T02:34:29.279Z,56.96
2019-03-06T02:36:57.929Z,56.99
2019-03-06T02:39:26.634Z,57.67
2019-03-06T02:41:55.258Z,61.18
2019-03-06T02:44:23.913Z,61.18
2019-03-06T02:46:52.573Z,60.24
2019-03-06T02:49:21.151Z,58.56
2019-03-06T02:51:49.812Z,58.64
2019-03-06T02:54:18.425Z,58.23
2019-03-06T02:56:47.887Z,57.69
2019-03-06T02:59:18.239Z,57.23
2019-03-06T03:01:48.510Z,58.78
2019-03-06T03:04:30.882Z,58.78
2019-03-06T03:07:01.134Z,59.79
2019-03-06T03:09:29.752Z,59.45
2019-03-06T03:11:58.394Z,61.51
2019-03-06T03:14:27.022Z,60.97
2019-03-06T03:16:55.671Z,60.97
2019-03-06T03:19:24.302Z,60.72
2019-03-06T03:21:52.923Z,61.03
2019-03-06T03:24:21.727Z,61.58
2019-03-06T03:26:50.386Z,61.33
2019-03-06T03:29:19.007Z,62.16
2019-03-06T03:31:47.637Z,64.35
2019-03-06T03:34:16.319Z,65.71
2019-03-06T03:36:44.916Z,66.29
2019-03-06T03:39:13.526Z,64.86
2019-03-06T03:41:42.206Z,63.54
2019-03-06T03:44:10.819Z,62.68
2019-03-06T03:46:39.449Z,63.31
2019-03-06T03:49:08.096Z,63.53
2019-03-06T03:51:36.717Z,62.52
2019-03-06T03:54:05.723Z,61.03
2019-03-06T03:56:34.384Z,60.25
2019-03-06T03:59:03.846Z,60.22
2019-03-06T04:01:32.461Z,63.33
2019-03-06T04:04:01.302Z,66.51
2019-03-06T04:06:29.918Z,65.30
2019-03-06T04:08:58.524Z,66.30
2019-03-06T04:11:27.205Z,65.32
2019-03-06T04:13:55.822Z,63.97
2019-03-06T04:16:24.440Z,62.95
2019-03-06T04:18:53.193Z,63.49
2019-03-06T04:21:21.813Z,64.90
2019-03-06T04:23:50.525Z,66.47
2019-03-06T04:26:19.169Z,67.15
2019-03-06T04:28:47.785Z,66.55
2019-03-06T04:31:16.478Z,68.57
2019-03-06T04:33:45.132Z,66.51
2019-03-06T04:36:13.748Z,63.97
2019-03-06T04:38:43.851Z,63.48
2019-03-06T04:41:12.605Z,63.14
2019-03-06T04:43:41.389Z,62.01
2019-03-06T04:46:10.014Z,61.98
2019-03-06T04:48:38.672Z,61.35
2019-03-06T04:51:07.295Z,60.94
2019-03-06T04:53:35.922Z,62.54
2019-03-06T04:56:04.899Z,64.68
2019-03-06T04:58:33.517Z,62.88
2019-03-06T05:01:02.984Z,62.56
2019-03-06T05:03:31.650Z,61.62
2019-03-06T05:06:00.262Z,61.33
2019-03-06T05:08:29.160Z,61.43
2019-03-06T05:10:57.826Z,63.43
2019-03-06T05:13:26.466Z,63.43
2019-03-06T05:15:55.078Z,62.26
2019-03-06T05:18:25.405Z,61.91
2019-03-06T05:20:54.026Z,60.38
2019-03-06T05:23:22.636Z,59.37
2019-03-06T05:25:51.307Z,62.36
2019-03-06T05:28:19.927Z,62.93
2019-03-06T05:30:48.551Z,63.80
2019-03-06T05:33:17.710Z,63.31
2019-03-06T05:36:13.009Z,61.83
2019-03-06T05:38:44.576Z,62.82
2019-03-06T05:41:13.212Z,62.75
2019-03-06T05:43:41.828Z,65.25
2019-03-06T05:46:10.495Z,63.56
2019-03-06T05:48:39.110Z,63.92
2019-03-06T05:51:07.732Z,62.62
2019-03-06T05:53:36.401Z,62.59
2019-03-06T05:56:05.019Z,61.49
2019-03-06T05:58:33.641Z,62.36
2019-03-06T06:01:02.292Z,62.69
2019-03-06T06:03:31.503Z,62.71
2019-03-06T06:06:00.122Z,61.38
2019-03-06T06:08:28.790Z,65.77
2019-03-06T06:10:57.409Z,66.27
2019-03-06T06:13:26.027Z,67.37
2019-03-06T06:15:54.672Z,66.96
2019-03-06T06:18:23.290Z,66.80
2019-03-06T06:20:53.552Z,66.80
2019-03-06T06:23:29.766Z,67.10
2019-03-06T06:25:58.386Z,65.87
2019-03-06T06:28:26.990Z,66.29
2019-03-06T06:30:55.849Z,65.53
2019-03-06T06:33:24.470Z,67.20
2019-03-06T06:35:53.082Z,67.20
2019-03-06T06:38:21.737Z,66.60
2019-03-06T06:40:50.287Z,64.06
2019-03-06T06:43:19.169Z,62.91
2019-03-06T06:45:47.843Z,62.07
2019-03-06T06:48:21.262Z,62.07
2019-03-06T06:51:11.980Z,63.41
2019-03-06T06:53:46.460Z,62.71
2019-03-06T06:56:37.184Z,61.42
2019-03-06T06:59:26.831Z,61.01
2019-03-06T07:02:19.025Z,62.98
2019-03-06T07:05:19.171Z,62.29
2019-03-06T07:08:04.577Z,60.25
2019-03-06T07:10:37.557Z,60.67
2019-03-06T07:13:24.081Z,60.09
2019-03-06T07:16:06.304Z,59.71
2019-03-06T07:18:36.627Z,59.36
2019-03-06T07:21:12.626Z,58.28
2019-03-06T07:23:42.911Z,58.61
2019-03-06T07:26:19.018Z,60.29
2019-03-06T07:28:58.184Z,58.98
2019-03-06T07:31:34.217Z,59.35
2019-03-06T07:34:04.519Z,61.03
2019-03-06T07:36:50.886Z,62.55
2019-03-06T07:39:22.304Z,63.09
2019-03-06T07:42:08.908Z,61.43
2019-03-06T07:44:55.223Z,63.22
2019-03-06T07:47:31.323Z,63.06
2019-03-06T07:50:01.631Z,62.16
2019-03-06T07:52:31.895Z,62.38
2019-03-06T07:55:05.085Z,62.42
2019-03-06T07:57:44.133Z,62.13
2019-03-06T08:00:15.029Z,60.27
2019-03-06T08:03:01.852Z,59.52
2019-03-06T08:05:30.488Z,59.51
2019-03-06T08:07:59.188Z,58.27
2019-03-06T08:10:29.488Z,56.58
2019-03-06T08:12:59.746Z,56.69
2019-03-06T08:15:36.122Z,59.09
2019-03-06T08:18:06.395Z,57.61
2019-03-06T08:20:51.861Z,57.86
2019-03-06T08:23:34.169Z,57.86
2019-03-06T08:26:02.828Z,57.69
2019-03-06T08:28:31.464Z,57.79
2019-03-06T08:31:04.705Z,56.47
2019-03-06T08:33:33.433Z,59.19
2019-03-06T08:36:02.057Z,60.57
2019-03-06T08:38:30.689Z,57.48
2019-03-06T08:41:04.436Z,56.91
2019-03-06T08:43:29.712Z,58.31
2019-03-06T08:46:05.743Z,59.67
2019-03-06T08:48:35.999Z,60.90
2019-03-06T08:51:06.255Z,57.86
2019-03-06T08:53:36.560Z,56.51
2019-03-06T08:56:09.803Z,57.34
2019-03-06T08:58:55.255Z,55.41
2019-03-06T09:01:33.352Z,57.41
2019-03-06T09:04:05.544Z,55.65
2019-03-06T09:06:41.558Z,55.17
2019-03-06T09:09:28.124Z,55.39
2019-03-06T09:11:58.402Z,55.21
2019-03-06T09:14:31.336Z,58.06
2019-03-06T09:17:19.520Z,57.09
2019-03-06T09:19:49.780Z,55.49
2019-03-06T09:22:26.147Z,54.67
2019-03-06T09:25:02.443Z,58.61
2019-03-06T09:27:48.719Z,59.78
2019-03-06T09:30:24.723Z,57.52
2019-03-06T09:33:10.880Z,58.16
2019-03-06T09:35:47.253Z,56.35
2019-03-06T09:38:33.640Z,56.13
2019-03-06T09:41:03.911Z,56.62
2019-03-06T09:43:37.137Z,55.37
2019-03-06T09:46:10.218Z,54.03
2019-03-06T09:48:40.489Z,54.50
2019-03-06T09:51:26.888Z,53.31
2019-03-06T09:54:13.095Z,51.76
2019-03-06T09:56:43.393Z,51.50
2019-03-06T09:59:22.317Z,50.84
2019-03-06T10:01:55.574Z,51.23
2019-03-06T10:04:25.844Z,50.39
2019-03-06T10:07:05.553Z,51.25
2019-03-06T10:09:44.786Z,48.95
2019-03-06T10:12:18.066Z,47.39
2019-03-06T10:15:06.385Z,47.21
2019-03-06T10:17:52.688Z,47.26
2019-03-06T10:20:25.464Z,47.14
2019-03-06T10:22:54.933Z,47.30
2019-03-06T10:25:30.128Z,47.01
2019-03-06T10:27:54.024Z,45.90
2019-03-06T10:30:22.651Z,44.20
2019-03-06T10:32:51.600Z,45.49
2019-03-06T10:35:20.210Z,46.07
2019-03-06T10:37:49.106Z,46.12
2019-03-06T10:40:18.764Z,45.16
2019-03-06T10:42:47.379Z,44.05
2019-03-06T10:45:17.353Z,42.03
2019-03-06T10:47:46.385Z,40.48
2019-03-06T10:50:26.349Z,40.42
2019-03-06T10:52:48.176Z,39.00
2019-03-06T10:55:18.423Z,39.22
2019-03-06T10:57:47.244Z,40.94
2019-03-06T11:00:29.105Z,40.09
2019-03-06T11:02:58.012Z,40.67
2019-03-06T11:05:28.206Z,39.56
2019-03-06T11:07:59.658Z,39.32
2019-03-06T11:10:29.676Z,38.76
2019-03-06T11:12:58.843Z,37.98
2019-03-06T11:15:27.764Z,38.34
2019-03-06T11:17:56.379Z,36.46
2019-03-06T11:20:28.416Z,35.29
2019-03-06T11:22:58.078Z,35.94
2019-03-06T11:25:27.512Z,35.77
2019-03-06T11:27:56.235Z,35.47
2019-03-06T11:30:36.262Z,33.27
2019-03-06T11:33:06.788Z,33.99
2019-03-06T11:35:35.598Z,32.97
2019-03-06T11:38:04.856Z,33.73
2019-03-06T11:40:35.117Z,32.75
2019-03-06T11:43:04.135Z,32.50
2019-03-06T11:45:33.164Z,30.50
2019-03-06T11:48:02.491Z,29.93
2019-03-06T11:50:31.087Z,31.46
2019-03-06T11:53:01.466Z,30.23
2019-03-06T11:55:30.491Z,29.93
2019-03-06T11:57:59.105Z,30.13
2019-03-06T12:00:29.407Z,29.79
2019-03-06T12:02:58.019Z,29.96
2019-03-06T12:05:26.839Z,29.95
2019-03-06T12:07:55.514Z,29.25
2019-03-06T12:10:24.909Z,29.30
2019-03-06T12:12:53.735Z,28.58
2019-03-06T12:15:22.396Z,28.39
2019-03-06T12:17:51.117Z,28.03
2019-03-06T12:20:19.746Z,28.40
2019-03-06T12:22:48.410Z,28.06
2019-03-06T12:25:17.209Z,27.49
2019-03-06T12:27:45.826Z,27.17
2019-03-06T12:30:17.626Z,27.13
2019-03-06T12:32:46.242Z,25.86
2019-03-06T12:35:18.347Z,25.77
2019-03-06T12:37:47.378Z,30.98
2019-03-06T12:40:17.806Z,30.48
2019-03-06T12:42:46.442Z,31.82
2019-03-06T12:45:18.826Z,32.71
2019-03-06T12:47:55.315Z,29.73
2019-03-06T12:50:23.642Z,28.40
2019-03-06T12:52:52.267Z,27.93
2019-03-06T12:55:20.882Z,27.80
2019-03-06T12:57:49.525Z,28.48
2019-03-06T13:00:21.430Z,28.54
2019-03-06T13:02:50.142Z,28.25
2019-03-06T13:05:19.808Z,28.12
2019-03-06T13:07:48.532Z,28.41
2019-03-06T13:10:17.962Z,27.90
2019-03-06T13:12:47.484Z,26.95
2019-03-06T13:15:19.001Z,27.07
2019-03-06T13:17:47.796Z,27.20
2019-03-06T13:20:17.123Z,26.52
2019-03-06T13:22:45.820Z,27.10
2019-03-06T13:25:17.323Z,26.95
2019-03-06T13:27:54.392Z,27.63
2019-03-06T13:30:17.667Z,27.96
2019-03-06T13:32:47.997Z,27.47
2019-03-06T13:35:16.660Z,28.58
2019-03-06T13:37:45.297Z,29.23
2019-03-06T13:40:18.424Z,29.43
2019-03-06T13:42:44.370Z,28.93
2019-03-06T13:45:14.853Z,26.93
2019-03-06T13:47:43.510Z,27.32
2019-03-06T13:50:12.158Z,25.91
2019-03-06T13:52:40.839Z,26.93
2019-03-06T13:55:14.208Z,27.14
2019-03-06T13:57:44.406Z,26.84
2019-03-06T14:00:18.747Z,27.27
2019-03-06T14:02:53.441Z,27.10
2019-03-06T14:05:22.829Z,27.25
2019-03-06T14:07:56.233Z,27.64
2019-03-06T14:10:25.622Z,27.57
2019-03-06T14:12:54.475Z,27.62
2019-03-06T14:15:23.838Z,27.52
2019-03-06T14:17:52.491Z,28.40
2019-03-06T14:20:24.379Z,28.51
2019-03-06T14:22:53.094Z,29.14
2019-03-06T14:25:22.615Z,28.96
2019-03-06T14:27:51.333Z,28.95
2019-03-06T14:30:28.379Z,28.60
2019-03-06T14:32:57.010Z,28.40
2019-03-06T14:35:26.522Z,27.37
2019-03-06T14:37:55.197Z,28.53
2019-03-06T14:40:29.320Z,27.98
2019-03-06T14:42:58.542Z,27.59
2019-03-06T14:45:27.373Z,26.88
2019-03-06T14:47:55.989Z,26.91
2019-03-06T14:50:24.597Z,27.09
2019-03-06T14:52:53.408Z,27.07
2019-03-06T14:55:22.039Z,27.23
2019-03-06T14:57:50.661Z,26.73
2019-03-06T15:00:20.602Z,27.03
2019-03-06T15:02:49.217Z,27.56
2019-03-06T15:05:18.717Z,27.80
2019-03-06T15:07:47.630Z,28.47
2019-03-06T15:10:19.724Z,28.12
2019-03-06T15:12:48.458Z,27.50
2019-03-06T15:15:20.688Z,27.80
2019-03-06T15:17:49.679Z,27.78
2019-03-06T15:20:23.277Z,27.49
2019-03-06T15:22:53.300Z,27.03
2019-03-06T15:25:24.062Z,26.58
2019-03-06T15:27:52.843Z,26.43
2019-03-06T15:30:21.674Z,26.55
2019-03-06T15:32:50.664Z,26.71
2019-03-06T15:35:19.925Z,26.39
2019-03-06T15:37:48.591Z,25.90
2019-03-06T15:40:32.077Z,25.73
2019-03-06T15:43:00.735Z,26.05
2019-03-06T15:45:32.807Z,26.22
2019-03-06T15:48:01.592Z,26.60
2019-03-06T15:50:31.652Z,26.36
2019-03-06T15:53:00.265Z,27.03
2019-03-06T15:55:29.783Z,26.42
2019-03-06T15:57:58.612Z,26.12
2019-03-06T16:00:45.410Z,26.77
2019-03-06T16:03:11.834Z,26.47
2019-03-06T16:05:41.424Z,25.39
2019-03-06T16:08:12.149Z,26.45
2019-03-06T16:10:41.374Z,25.89
2019-03-06T16:13:09.996Z,26.18
2019-03-06T16:15:38.692Z,26.28
2019-03-06T16:18:09.159Z,27.28
2019-03-06T16:20:38.350Z,27.61
2019-03-06T16:23:07.066Z,27.98
2019-03-06T16:25:37.962Z,27.66
2019-03-06T16:28:06.353Z,28.65
2019-03-06T16:30:35.160Z,28.50
2019-03-06T16:33:03.981Z,28.43
2019-03-06T16:35:32.617Z,28.04
2019-03-06T16:38:01.295Z,27.91
2019-03-06T16:40:30.694Z,27.90
2019-03-06T16:42:59.410Z,27.64
2019-03-06T16:45:29.949Z,27.50
2019-03-06T16:48:00.376Z,27.74
2019-03-06T16:50:29.069Z,27.54
2019-03-06T16:52:58.914Z,28.18
2019-03-06T16:55:27.951Z,28.63
2019-03-06T16:57:57.438Z,28.38
2019-03-06T17:00:33.677Z,28.32
2019-03-06T17:03:04.165Z,28.29
2019-03-06T17:05:33.768Z,29.64
2019-03-06T17:08:02.997Z,29.23
2019-03-06T17:10:32.991Z,29.52
2019-03-06T17:13:01.956Z,29.60
2019-03-06T17:15:31.878Z,31.56
2019-03-06T17:18:00.973Z,29.67
2019-03-06T17:20:31.043Z,29.76
2019-03-06T17:23:00.012Z,30.15
2019-03-06T17:25:29.215Z,30.03
2019-03-06T17:27:58.108Z,29.80
2019-03-06T17:30:28.438Z,29.70
2019-03-06T17:32:59.288Z,29.47
2019-03-06T17:35:28.872Z,29.85
2019-03-06T17:37:57.894Z,30.39
2019-03-06T17:40:26.879Z,30.35
2019-03-06T17:42:55.893Z,30.07
2019-03-06T17:45:25.136Z,30.19
2019-03-06T17:47:53.955Z,29.82
2019-03-06T17:50:22.749Z,30.65
2019-03-06T17:52:51.486Z,30.77
2019-03-06T17:55:24.128Z,29.79
2019-03-06T17:57:52.830Z,29.89
2019-03-06T18:00:37.843Z,29.60
2019-03-06T18:03:07.539Z,29.27
2019-03-06T18:05:36.352Z,28.74
2019-03-06T18:08:05.267Z,28.96
2019-03-06T18:10:33.970Z,28.77
2019-03-06T18:13:02.672Z,29.15
2019-03-06T18:15:31.611Z,29.18
2019-03-06T18:18:00.297Z,29.19
2019-03-06T18:20:29.084Z,28.82
2019-03-06T18:22:57.813Z,29.80
2019-03-06T18:25:26.721Z,29.43
2019-03-06T18:27:55.539Z,30.36
2019-03-06T18:30:24.657Z,30.79
2019-03-06T18:32:53.381Z,31.54
2019-03-06T18:35:22.605Z,31.44
2019-03-06T18:37:51.983Z,32.19
2019-03-06T18:40:21.981Z,31.60
2019-03-06T18:42:50.677Z,31.70
2019-03-06T18:45:20.585Z,31.61
2019-03-06T18:47:49.575Z,32.52
2019-03-06T18:50:19.267Z,32.58
2019-03-06T18:52:48.618Z,32.05
2019-03-06T18:55:19.792Z,31.62
2019-03-06T18:57:48.814Z,31.16
2019-03-06T19:00:28.662Z,31.18
2019-03-06T19:02:57.360Z,31.19
2019-03-06T19:05:26.259Z,31.27
2019-03-06T19:07:55.091Z,31.33
2019-03-06T19:10:24.494Z,31.49
2019-03-06T19:12:53.688Z,31.54
2019-03-06T19:15:26.092Z,32.05
2019-03-06T19:17:54.800Z,32.23
2019-03-06T19:20:23.695Z,32.27
2019-03-06T19:22:54.256Z,31.88
2019-03-06T19:25:23.170Z,32.03
2019-03-06T19:27:53.541Z,33.53
2019-03-06T19:30:23.594Z,32.47
2019-03-06T19:32:52.614Z,32.01
2019-03-06T19:35:22.208Z,32.03
2019-03-06T19:37:51.151Z,32.27
2019-03-06T19:40:20.038Z,31.90
2019-03-06T19:42:48.833Z,32.05
2019-03-06T19:45:20.013Z,32.71
2019-03-06T19:47:50.644Z,32.79
2019-03-06T19:50:22.421Z,32.40
2019-03-06T19:52:51.174Z,32.97
2019-03-06T19:55:20.380Z,32.57
2019-03-06T19:58:01.001Z,32.32
2019-03-06T20:00:30.995Z,33.34
2019-03-06T20:03:00.599Z,33.76
2019-03-06T20:05:34.523Z,33.47
2019-03-06T20:08:03.862Z,33.04
2019-03-06T20:10:32.556Z,32.97
2019-03-06T20:13:01.305Z,33.27
2019-03-06T20:15:30.195Z,32.42
2019-03-06T20:17:59.094Z,32.48
2019-03-06T20:20:27.820Z,33.12
2019-03-06T20:22:56.840Z,34.11
2019-03-06T20:25:25.648Z,33.74
2019-03-06T20:27:54.370Z,34.65
2019-03-06T20:30:25.216Z,34.38
2019-03-06T20:32:54.021Z,34.60
2019-03-06T20:35:24.481Z,35.46
2019-03-06T20:37:53.374Z,34.97
2019-03-06T20:40:22.378Z,35.13
2019-03-06T20:42:51.338Z,35.94
2019-03-06T20:45:20.331Z,35.59
2019-03-06T20:47:49.133Z,36.00
2019-03-06T20:50:19.008Z,36.41
2019-03-06T20:52:47.664Z,35.43
2019-03-06T20:55:18.257Z,35.25
2019-03-06T20:57:47.113Z,36.24
2019-03-06T21:00:24.541Z,36.37
2019-03-06T21:02:53.281Z,36.38
2019-03-06T21:05:22.073Z,36.45
2019-03-06T21:07:50.877Z,36.10
2019-03-06T21:10:20.307Z,35.91
2019-03-06T21:12:49.005Z,35.10
2019-03-06T21:15:20.609Z,35.18
2019-03-06T21:17:49.441Z,35.38
2019-03-06T21:20:25.662Z,34.93
2019-03-06T21:22:54.397Z,35.06
2019-03-06T21:25:23.199Z,34.84
2019-03-06T21:27:52.168Z,34.57
2019-03-06T21:30:27.072Z,35.11
2019-03-06T21:32:55.765Z,36.30
2019-03-06T21:35:24.468Z,37.92
2019-03-06T21:37:53.196Z,39.13
2019-03-06T21:40:21.889Z,39.40
2019-03-06T21:42:50.772Z,39.28
2019-03-06T21:45:19.502Z,40.86
2019-03-06T21:47:48.191Z,41.83
2019-03-06T21:50:17.385Z,41.69
2019-03-06T21:52:46.102Z,40.89
2019-03-06T21:55:15.423Z,40.41
2019-03-06T21:57:44.336Z,39.62
2019-03-06T22:00:21.407Z,39.37
2019-03-06T22:02:50.045Z,38.90
2019-03-06T22:05:18.684Z,39.07
2019-03-06T22:07:50.188Z,39.40
2019-03-06T22:10:18.105Z,39.40
2019-03-06T22:12:46.741Z,39.11
2019-03-06T22:15:17.577Z,39.33
2019-03-06T22:17:46.201Z,39.30
2019-03-06T22:20:15.329Z,39.22
2019-03-06T22:22:44.006Z,39.79
2019-03-06T22:25:14.736Z,39.86
2019-03-06T22:27:43.372Z,39.91
2019-03-06T22:30:22.610Z,40.21
2019-03-06T22:32:51.044Z,39.64
2019-03-06T22:35:19.970Z,40.27
2019-03-06T22:37:48.627Z,40.13
2019-03-06T22:40:18.343Z,39.88
2019-03-06T22:42:47.000Z,40.23
2019-03-06T22:45:17.152Z,40.26
2019-03-06T22:47:45.790Z,39.89
2019-03-06T22:50:15.619Z,39.89
2019-03-06T22:52:44.294Z,39.94
2019-03-06T22:55:17.680Z,40.12
2019-03-06T22:57:46.293Z,40.81
2019-03-06T23:00:20.650Z,40.18
2019-03-06T23:02:49.374Z,40.09
2019-03-06T23:05:17.998Z,39.96
2019-03-06T23:07:46.674Z,39.98
2019-03-06T23:10:15.295Z,39.64
2019-03-06T23:12:43.908Z,39.54
2019-03-06T23:15:12.564Z,39.26
2019-03-06T23:17:41.198Z,40.00
2019-03-06T23:20:09.817Z,40.08
2019-03-06T23:22:38.488Z,39.65
2019-03-06T23:25:07.714Z,39.70
2019-03-06T23:27:36.344Z,40.30
2019-03-06T23:30:07.915Z,40.49
2019-03-06T23:32:36.537Z,39.96
2019-03-06T23:35:06.948Z,40.10
2019-03-06T23:37:35.595Z,40.03
2019-03-06T23:40:05.518Z,40.55
2019-03-06T23:42:34.147Z,40.92
2019-03-06T23:45:02.812Z,40.41
2019-03-06T23:47:31.495Z,40.55
2019-03-06T23:50:00.302Z,40.18
2019-03-06T23:52:30.655Z,41.40
2019-03-06T23:54:59.268Z,40.56
2019-03-06T23:57:27.879Z,40.71
2019-03-06T23:59:56.454Z,40.79
